createdAt,value
2018-09-27T00:00:05.397Z,9.5
2018-09-27T00:01:05.290Z,9.5
2018-09-27T00:12:03.482Z,9.9
2018-09-27T00:13:03.426Z,9.9
2018-09-27T00:14:03.332Z,9.8
2018-09-27T00:15:06.417Z,9.8
2018-09-27T00:16:06.323Z,9.8
2018-09-27T00:17:06.223Z,9.7
2018-09-27T00:18:06.154Z,9.7
2018-09-27T00:19:06.061Z,9.6
2018-09-27T00:20:06.022Z,9.6
2018-09-27T00:21:05.932Z,9.5
2018-09-27T00:22:06.271Z,9.5
2018-09-27T00:23:06.169Z,9.5
2018-09-27T00:24:06.074Z,9.5
2018-09-27T00:25:05.989Z,9.5
2018-09-27T00:26:05.902Z,9.4
2018-09-27T00:27:05.807Z,9.4
2018-09-27T00:28:05.724Z,9.3
2018-09-27T00:29:05.663Z,9.3
2018-09-27T00:30:05.573Z,9.3
2018-09-27T00:31:05.478Z,9.3
2018-09-27T00:32:05.822Z,9.3
2018-09-27T00:33:05.718Z,9.3
2018-09-27T00:34:05.633Z,9.2
2018-09-27T00:35:05.582Z,9.2
2018-09-27T00:36:05.488Z,9.2
2018-09-27T00:37:05.389Z,9.3
2018-09-27T00:38:05.297Z,9.2
2018-09-27T00:39:05.201Z,9.3
2018-09-27T00:40:05.114Z,9.3
2018-09-27T00:41:05.033Z,9.3
2018-09-27T00:52:03.224Z,9.6
2018-09-27T00:53:03.121Z,9.5
2018-09-27T00:54:03.025Z,9.5
2018-09-27T00:55:02.948Z,9.4
2018-09-27T00:56:02.853Z,9.3
2018-09-27T00:57:02.783Z,9.3
2018-09-27T00:58:02.693Z,9.3
2018-09-27T00:59:02.591Z,9.2
2018-09-27T01:00:02.506Z,9.2
2018-09-27T01:01:02.412Z,9.1
2018-09-27T01:02:02.761Z,9.1
2018-09-27T01:03:02.685Z,9.1
2018-09-27T01:04:02.633Z,9.1
2018-09-27T01:05:02.559Z,9.1
2018-09-27T01:06:02.514Z,9.2
2018-09-27T01:07:02.426Z,9.1
2018-09-27T01:08:02.340Z,9.1
2018-09-27T01:09:02.245Z,9.1
2018-09-27T01:10:02.251Z,9.1
2018-09-27T01:11:02.185Z,9
2018-09-27T01:12:02.526Z,9
2018-09-27T01:13:02.460Z,9
2018-09-27T01:14:02.408Z,9.1
2018-09-27T01:15:02.335Z,9
2018-09-27T01:16:02.246Z,9
2018-09-27T01:17:02.156Z,9
2018-09-27T01:18:02.074Z,8.9
2018-09-27T01:19:02.011Z,9
2018-09-27T01:20:01.940Z,8.9
2018-09-27T01:21:01.862Z,9
2018-09-27T01:22:02.217Z,9
2018-09-27T01:23:02.124Z,8.9
2018-09-27T01:24:02.041Z,8.9
2018-09-27T01:25:01.954Z,8.9
2018-09-27T01:26:01.926Z,8.9
2018-09-27T01:27:01.837Z,8.9
2018-09-27T01:28:01.749Z,8.9
2018-09-27T01:29:01.650Z,8.9
2018-09-27T01:30:01.569Z,8.9
2018-09-27T01:31:01.481Z,8.9
2018-09-27T01:41:59.647Z,9.1
2018-09-27T01:42:59.547Z,9.1
2018-09-27T01:43:59.452Z,9
2018-09-27T01:44:59.357Z,8.9
2018-09-27T01:45:59.272Z,8.9
2018-09-27T01:46:59.261Z,8.9
2018-09-27T01:47:59.411Z,8.9
2018-09-27T01:48:59.339Z,8.9
2018-09-27T01:49:59.239Z,8.9
2018-09-27T01:50:59.174Z,8.8
2018-09-27T01:51:59.545Z,8.8
2018-09-27T01:52:59.459Z,8.8
2018-09-27T01:53:59.414Z,8.8
2018-09-27T01:54:59.315Z,8.7
2018-09-27T01:55:59.287Z,8.7
2018-09-27T01:56:59.205Z,8.8
2018-09-27T01:57:59.112Z,8.7
2018-09-27T01:58:59.012Z,8.7
2018-09-27T01:59:58.901Z,8.7
2018-09-27T02:00:58.805Z,8.7
2018-09-27T02:01:59.160Z,8.7
2018-09-27T02:02:59.076Z,8.8
2018-09-27T02:03:58.973Z,8.8
2018-09-27T02:04:58.878Z,8.8
2018-09-27T02:05:58.781Z,8.8
2018-09-27T02:06:58.722Z,8.7
2018-09-27T02:07:58.621Z,8.8
2018-09-27T02:08:58.528Z,8.8
2018-09-27T02:09:58.420Z,8.8
2018-09-27T02:10:58.317Z,8.7
2018-09-27T02:21:56.487Z,9.2
2018-09-27T02:22:56.415Z,9.1
2018-09-27T02:23:56.321Z,9.1
2018-09-27T02:24:56.226Z,9
2018-09-27T02:25:56.124Z,9
2018-09-27T02:26:56.028Z,9
2018-09-27T02:27:55.966Z,9
2018-09-27T02:28:55.882Z,9
2018-09-27T02:29:55.782Z,8.9
2018-09-27T02:30:55.698Z,8.9
2018-09-27T02:31:56.062Z,8.9
2018-09-27T02:32:55.967Z,9
2018-09-27T02:33:55.931Z,9
2018-09-27T02:34:55.823Z,8.9
2018-09-27T02:35:55.737Z,9
2018-09-27T02:36:55.639Z,9
2018-09-27T02:37:55.554Z,9
2018-09-27T02:38:55.475Z,9
2018-09-27T02:39:55.398Z,8.9
2018-09-27T02:40:55.305Z,8.9
2018-09-27T02:41:55.654Z,8.9
2018-09-27T02:42:55.564Z,8.9
2018-09-27T02:43:55.480Z,8.8
2018-09-27T02:44:55.409Z,8.8
2018-09-27T02:45:55.327Z,8.8
2018-09-27T02:46:55.240Z,8.8
2018-09-27T02:47:55.145Z,8.8
2018-09-27T02:48:55.053Z,8.7
2018-09-27T02:49:54.957Z,8.7
2018-09-27T02:50:54.869Z,8.7
2018-09-27T02:51:55.218Z,8.7
2018-09-27T02:52:55.112Z,8.7
2018-09-27T02:53:55.028Z,8.7
2018-09-27T02:54:54.942Z,8.6
2018-09-27T02:55:54.857Z,8.7
2018-09-27T02:56:54.752Z,8.7
2018-09-27T02:57:54.659Z,8.7
2018-09-27T02:58:54.570Z,8.7
2018-09-27T02:59:54.513Z,8.6
2018-09-27T03:00:54.457Z,8.6
2018-09-27T03:11:52.705Z,9.1
2018-09-27T03:12:52.613Z,9.1
2018-09-27T03:13:52.688Z,9
2018-09-27T03:14:53.020Z,8.9
2018-09-27T03:15:52.966Z,8.9
2018-09-27T03:16:52.888Z,8.8
2018-09-27T03:17:52.779Z,8.8
2018-09-27T03:18:52.684Z,8.7
2018-09-27T03:19:52.607Z,8.7
2018-09-27T03:20:52.676Z,8.6
2018-09-27T03:31:51.271Z,8.8
2018-09-27T03:32:51.201Z,8.8
2018-09-27T03:33:51.105Z,8.7
2018-09-27T03:34:51.009Z,8.7
2018-09-27T03:35:50.927Z,8.7
2018-09-27T03:36:50.832Z,8.7
2018-09-27T03:37:50.770Z,8.8
2018-09-27T03:38:50.710Z,8.8
2018-09-27T03:39:50.862Z,8.7
2018-09-27T03:40:51.057Z,8.7
2018-09-27T03:41:51.398Z,8.7
2018-09-27T03:42:51.308Z,8.7
2018-09-27T03:43:51.242Z,8.6
2018-09-27T03:44:51.154Z,8.6
2018-09-27T03:45:51.054Z,8.7
2018-09-27T03:46:51.022Z,8.6
2018-09-27T03:47:50.918Z,8.6
2018-09-27T03:48:50.825Z,8.6
2018-09-27T03:49:50.741Z,8.5
2018-09-27T03:50:50.641Z,8.5
2018-09-27T04:01:48.887Z,8.7
2018-09-27T04:02:48.793Z,8.7
2018-09-27T04:03:48.688Z,8.6
2018-09-27T04:04:48.623Z,8.5
2018-09-27T04:05:48.539Z,8.4
2018-09-27T04:06:48.439Z,8.4
2018-09-27T04:07:48.341Z,8.3
2018-09-27T04:08:48.260Z,8.3
2018-09-27T04:09:48.192Z,8.2
2018-09-27T04:10:48.109Z,8.2
2018-09-27T04:11:48.466Z,8.1
2018-09-27T04:12:48.360Z,8.1
2018-09-27T04:13:48.283Z,8.2
2018-09-27T04:14:48.190Z,8.1
2018-09-27T04:15:48.235Z,8.2
2018-09-27T04:16:48.415Z,8.1
2018-09-27T04:17:48.327Z,8.1
2018-09-27T04:18:48.221Z,8.1
2018-09-27T04:19:48.142Z,8.1
2018-09-27T04:20:48.056Z,8
2018-09-27T04:21:48.510Z,8
2018-09-27T04:22:48.659Z,8.1
2018-09-27T04:23:48.564Z,8
2018-09-27T04:24:48.471Z,8
2018-09-27T04:25:48.389Z,8
2018-09-27T04:26:48.287Z,8
2018-09-27T04:27:48.450Z,7.9
2018-09-27T04:28:48.633Z,7.9
2018-09-27T04:29:48.534Z,8
2018-09-27T04:30:48.457Z,8
2018-09-27T04:41:47.358Z,8.3
2018-09-27T04:42:47.263Z,8.3
2018-09-27T04:43:47.175Z,8.3
2018-09-27T04:44:47.080Z,8.3
2018-09-27T04:45:47.131Z,8.2
2018-09-27T04:46:47.461Z,8.1
2018-09-27T04:47:47.971Z,8.1
2018-09-27T04:48:47.880Z,8.1
2018-09-27T04:49:47.779Z,8
2018-09-27T04:50:47.711Z,8
2018-09-27T04:51:48.388Z,8
2018-09-27T04:52:48.572Z,8
2018-09-27T04:53:48.500Z,7.9
2018-09-27T04:54:48.414Z,7.9
2018-09-27T04:55:48.350Z,7.9
2018-09-27T04:56:48.258Z,7.9
2018-09-27T04:57:48.149Z,7.9
2018-09-27T04:58:48.073Z,7.8
2018-09-27T04:59:47.972Z,7.8
2018-09-27T05:00:48.023Z,7.8
2018-09-27T05:01:48.382Z,7.9
2018-09-27T05:02:48.293Z,7.9
2018-09-27T05:03:48.475Z,7.9
2018-09-27T05:04:48.649Z,7.9
2018-09-27T05:05:48.539Z,7.9
2018-09-27T05:06:48.467Z,7.9
2018-09-27T05:07:48.374Z,7.9
2018-09-27T05:08:48.278Z,7.9
2018-09-27T05:09:48.190Z,7.9
2018-09-27T05:10:48.112Z,7.8
2018-09-27T05:21:46.544Z,8.3
2018-09-27T05:22:46.448Z,8.2
2018-09-27T05:23:46.430Z,8.2
2018-09-27T05:24:46.325Z,8.2
2018-09-27T05:25:46.223Z,8.1
2018-09-27T05:26:46.137Z,8.1
2018-09-27T05:27:46.298Z,8.1
2018-09-27T05:28:46.776Z,8.1
2018-09-27T05:29:46.692Z,8
2018-09-27T05:30:46.607Z,7.9
2018-09-27T05:31:47.001Z,8
2018-09-27T05:32:46.908Z,8
2018-09-27T05:33:46.856Z,8.1
2018-09-27T05:34:46.769Z,8.1
2018-09-27T05:35:46.671Z,8.1
2018-09-27T05:36:46.581Z,8.1
2018-09-27T05:37:46.493Z,8.1
2018-09-27T05:38:46.445Z,8.1
2018-09-27T05:39:46.366Z,8
2018-09-27T05:40:46.278Z,8
2018-09-27T05:41:46.622Z,8
2018-09-27T05:42:46.541Z,8
2018-09-27T05:43:46.458Z,8
2018-09-27T05:44:46.360Z,8
2018-09-27T05:45:46.273Z,8
2018-09-27T05:46:46.180Z,8
2018-09-27T05:47:46.091Z,8
2018-09-27T05:48:46.024Z,8
2018-09-27T05:49:46.097Z,8
2018-09-27T05:50:46.185Z,8
2018-09-27T05:51:46.532Z,8.1
2018-09-27T05:52:46.458Z,8.1
2018-09-27T05:53:46.368Z,8.1
2018-09-27T05:54:46.307Z,8
2018-09-27T05:55:46.391Z,8
2018-09-27T05:56:46.521Z,8
2018-09-27T05:57:46.440Z,8
2018-09-27T05:58:46.398Z,8.1
2018-09-27T05:59:46.305Z,8.1
2018-09-27T06:00:46.213Z,8.1
2018-09-27T06:11:45.001Z,8.7
2018-09-27T06:12:44.908Z,8.7
2018-09-27T06:13:44.811Z,8.7
2018-09-27T06:14:44.712Z,8.7
2018-09-27T06:15:44.857Z,8.7
2018-09-27T06:16:44.800Z,8.6
2018-09-27T06:17:44.718Z,8.6
2018-09-27T06:18:44.642Z,8.7
2018-09-27T06:19:44.743Z,8.6
2018-09-27T06:20:44.935Z,8.6
2018-09-27T06:21:45.360Z,8.6
2018-09-27T06:22:45.297Z,8.7
2018-09-27T06:23:45.207Z,8.7
2018-09-27T06:24:45.115Z,8.7
2018-09-27T06:25:45.009Z,8.7
2018-09-27T06:26:44.953Z,8.7
2018-09-27T06:27:44.863Z,8.7
2018-09-27T06:28:44.781Z,8.7
2018-09-27T06:29:44.699Z,8.7
2018-09-27T06:30:44.601Z,8.8
2018-09-27T06:31:44.944Z,8.8
2018-09-27T06:32:44.889Z,8.8
2018-09-27T06:33:45.114Z,8.9
2018-09-27T06:34:45.034Z,9
2018-09-27T06:35:44.958Z,9.1
2018-09-27T06:36:44.871Z,9.2
2018-09-27T06:37:44.811Z,9.3
2018-09-27T06:38:45.273Z,9.5
2018-09-27T06:39:45.269Z,9.6
2018-09-27T06:40:45.182Z,9.7
2018-09-27T06:41:45.748Z,9.8
2018-09-27T06:42:45.687Z,9.9
2018-09-27T06:43:45.800Z,10
2018-09-27T06:44:46.016Z,10.1
2018-09-27T06:45:45.956Z,10.2
2018-09-27T06:46:45.907Z,10.3
2018-09-27T06:47:45.802Z,10.3
2018-09-27T06:48:46.019Z,10.3
2018-09-27T06:49:46.224Z,10.3
2018-09-27T06:50:46.317Z,10.4
2018-09-27T06:51:46.651Z,10.4
2018-09-27T06:52:46.558Z,10.4
2018-09-27T06:53:46.548Z,10.4
2018-09-27T06:54:46.858Z,10.5
2018-09-27T06:55:47.392Z,10.5
2018-09-27T06:56:47.914Z,10.5
2018-09-27T06:57:47.830Z,10.5
2018-09-27T06:58:47.802Z,10.6
2018-09-27T06:59:47.706Z,10.6
2018-09-27T07:00:47.712Z,10.6
2018-09-27T07:01:48.352Z,10.6
2018-09-27T07:02:48.261Z,10.7
2018-09-27T07:03:48.163Z,10.7
2018-09-27T07:04:48.194Z,10.8
2018-09-27T07:05:48.238Z,10.8
2018-09-27T07:06:48.154Z,10.8
2018-09-27T07:07:48.062Z,10.8
2018-09-27T07:08:47.973Z,10.8
2018-09-27T07:09:47.916Z,10.9
2018-09-27T07:10:47.833Z,10.9
2018-09-27T07:11:48.269Z,10.9
2018-09-27T07:12:48.895Z,11
2018-09-27T07:13:49.159Z,11.1
2018-09-27T07:14:49.090Z,11.1
2018-09-27T07:15:49.012Z,11.1
2018-09-27T07:16:48.910Z,11.1
2018-09-27T07:17:48.811Z,11.1
2018-09-27T07:18:48.906Z,11.1
2018-09-27T07:19:49.086Z,11.1
2018-09-27T07:20:49.317Z,11.1
2018-09-27T07:21:50.463Z,11.1
2018-09-27T07:22:50.384Z,11.2
2018-09-27T07:23:50.313Z,11.3
2018-09-27T07:24:50.217Z,11.3
2018-09-27T07:25:50.151Z,11.3
2018-09-27T07:26:50.799Z,11.3
2018-09-27T07:27:51.035Z,11.3
2018-09-27T07:28:50.927Z,11.3
2018-09-27T07:29:51.109Z,11.3
2018-09-27T07:30:51.036Z,11.3
2018-09-27T07:31:51.393Z,11.4
2018-09-27T07:32:51.325Z,11.4
2018-09-27T07:33:51.239Z,11.5
2018-09-27T07:34:51.138Z,11.6
2018-09-27T07:35:51.046Z,11.7
2018-09-27T07:36:50.968Z,11.8
2018-09-27T07:37:50.879Z,11.9
2018-09-27T07:38:50.789Z,12.1
2018-09-27T07:39:50.703Z,12.2
2018-09-27T07:40:50.604Z,12.3
2018-09-27T07:41:51.204Z,12.5
2018-09-27T07:42:51.535Z,12.6
2018-09-27T07:43:51.991Z,12.7
2018-09-27T07:44:51.889Z,12.8
2018-09-27T07:45:51.799Z,13
2018-09-27T07:46:51.713Z,13
2018-09-27T07:47:51.649Z,13.1
2018-09-27T07:48:51.564Z,13.1
2018-09-27T07:49:51.470Z,13.2
2018-09-27T07:50:51.372Z,13.3
2018-09-27T07:51:51.735Z,13.5
2018-09-27T07:52:51.641Z,13.6
2018-09-27T07:53:51.563Z,13.6
2018-09-27T07:54:51.765Z,13.7
2018-09-27T07:55:52.041Z,13.7
2018-09-27T07:56:51.948Z,13.9
2018-09-27T07:57:51.861Z,14
2018-09-27T07:58:51.776Z,14.1
2018-09-27T07:59:51.663Z,14.3
2018-09-27T08:00:51.572Z,14.4
2018-09-27T08:01:52.164Z,14.6
2018-09-27T08:02:52.724Z,14.6
2018-09-27T08:03:53.577Z,14.7
2018-09-27T08:04:53.482Z,14.8
2018-09-27T08:05:53.388Z,14.8
2018-09-27T08:06:53.283Z,14.9
2018-09-27T08:07:53.196Z,14.9
2018-09-27T08:08:53.132Z,14.9
2018-09-27T08:09:53.041Z,14.9
2018-09-27T08:10:53.120Z,15
2018-09-27T08:11:54.338Z,15.1
2018-09-27T08:21:54.395Z,16.3
2018-09-27T08:22:54.380Z,16.3
2018-09-27T08:23:54.375Z,16.4
2018-09-27T08:24:54.332Z,16.4
2018-09-27T08:25:54.245Z,16.3
2018-09-27T08:26:54.141Z,16.3
2018-09-27T08:27:54.051Z,16.1
2018-09-27T08:28:54.003Z,16.2
2018-09-27T08:29:53.911Z,16.1
2018-09-27T08:30:54.438Z,16
2018-09-27T08:31:55.529Z,16.1
2018-09-27T08:32:55.435Z,16.2
2018-09-27T08:33:55.367Z,16.3
2018-09-27T08:34:55.266Z,16.3
2018-09-27T08:35:55.183Z,16.3
2018-09-27T08:36:55.109Z,16.4
2018-09-27T08:37:55.122Z,16.5
2018-09-27T08:38:55.035Z,16.6
2018-09-27T08:39:54.986Z,16.7
2018-09-27T08:40:54.900Z,16.8
2018-09-27T08:41:55.247Z,16.9
2018-09-27T08:42:55.188Z,16.9
2018-09-27T08:43:55.094Z,16.9
2018-09-27T08:44:55.686Z,16.8
2018-09-27T08:45:56.922Z,16.9
2018-09-27T08:46:57.322Z,17
2018-09-27T08:47:57.230Z,16.8
2018-09-27T08:48:57.139Z,17
2018-09-27T08:49:57.107Z,17.2
2018-09-27T08:50:57.014Z,17.1
2018-09-27T08:51:57.663Z,17.1
2018-09-27T08:52:57.572Z,17.1
2018-09-27T08:53:57.477Z,17.1
2018-09-27T08:54:57.382Z,17.1
2018-09-27T08:55:57.965Z,17.1
2018-09-27T08:56:58.519Z,17.2
2018-09-27T08:57:58.425Z,17
2018-09-27T08:58:58.343Z,16.1
2018-09-27T08:59:58.244Z,15.7
2018-09-27T09:00:58.195Z,15.5
2018-09-27T09:02:01.551Z,15.5
2018-09-27T09:12:00.213Z,17.8
2018-09-27T09:13:00.270Z,17.7
2018-09-27T09:14:03.180Z,17.7
2018-09-27T09:15:03.104Z,17.7
2018-09-27T09:16:03.024Z,17.6
2018-09-27T09:17:02.960Z,17.7
2018-09-27T09:18:02.891Z,17.7
2018-09-27T09:19:02.789Z,17.8
2018-09-27T09:20:02.705Z,17.9
2018-09-27T09:21:02.623Z,17.9
2018-09-27T09:22:03.324Z,17.8
2018-09-27T09:23:03.272Z,17.8
2018-09-27T09:42:00.927Z,18.8
2018-09-27T09:43:00.838Z,18.8
2018-09-27T09:44:00.964Z,18.5
2018-09-27T09:45:00.921Z,18.5
2018-09-27T09:46:00.824Z,18.6
2018-09-27T09:47:00.727Z,18.6
2018-09-27T09:48:00.636Z,18.6
2018-09-27T09:49:00.550Z,18.3
2018-09-27T09:50:00.657Z,18.3
2018-09-27T09:51:01.083Z,18.2
2018-09-27T09:52:01.455Z,18.2
2018-09-27T09:53:01.368Z,18.1
2018-09-27T09:54:01.279Z,18.3
2018-09-27T09:55:01.193Z,18.4
2018-09-27T09:56:01.130Z,18.5
2018-09-27T09:57:01.048Z,18.4
2018-09-27T09:58:00.980Z,18.5
2018-09-27T09:59:00.903Z,18.4
2018-09-27T10:00:00.823Z,18.6
2018-09-27T10:01:00.753Z,18.6
2018-09-27T10:02:01.141Z,18.6
2018-09-27T10:03:01.067Z,18.4
2018-09-27T10:04:00.978Z,18.4
2018-09-27T10:05:00.900Z,18.5
2018-09-27T10:06:00.847Z,18.4
2018-09-27T10:07:00.752Z,18.5
2018-09-27T10:08:00.651Z,18.5
2018-09-27T10:09:00.830Z,18.5
2018-09-27T10:10:01.298Z,18.5
2018-09-27T10:11:01.228Z,18.5
2018-09-27T10:12:01.601Z,18.3
2018-09-27T10:13:01.536Z,18.1
2018-09-27T10:14:01.448Z,18.1
2018-09-27T10:15:01.364Z,18.2
2018-09-27T10:16:01.274Z,18.3
2018-09-27T10:17:01.252Z,18.2
2018-09-27T10:18:01.180Z,18.3
2018-09-27T10:19:01.144Z,18.4
2018-09-27T10:20:01.067Z,18.4
2018-09-27T10:21:01.020Z,18.6
2018-09-27T10:22:01.862Z,18.6
2018-09-27T10:23:02.051Z,18.6
2018-09-27T10:41:58.414Z,19
2018-09-27T10:42:58.320Z,19
2018-09-27T10:43:58.247Z,19
2018-09-27T10:44:58.389Z,18.9
2018-09-27T10:45:58.481Z,18.8
2018-09-27T10:46:58.393Z,18.8
2018-09-27T10:47:58.310Z,18.7
2018-09-27T10:48:58.243Z,18.8
2018-09-27T10:49:58.166Z,18.6
2018-09-27T10:50:58.079Z,18.4
2018-09-27T10:51:59.059Z,18.5
2018-09-27T10:52:58.964Z,18.3
2018-09-27T10:53:58.889Z,18.2
2018-09-27T10:54:58.808Z,18.3
2018-09-27T10:55:58.940Z,18.3
2018-09-27T10:56:58.959Z,18.5
2018-09-27T10:57:58.983Z,18.5
2018-09-27T10:58:58.884Z,18.3
2018-09-27T10:59:58.807Z,18.3
2018-09-27T11:00:58.716Z,18.2
2018-09-27T11:01:59.083Z,18.2
2018-09-27T11:02:58.981Z,18.3
2018-09-27T11:03:59.085Z,18.3
2018-09-27T11:04:59.206Z,18.3
2018-09-27T11:05:59.359Z,18.4
2018-09-27T11:06:59.261Z,18.3
2018-09-27T11:07:59.171Z,18.4
2018-09-27T11:08:59.072Z,18.3
2018-09-27T11:09:59.214Z,18.4
2018-09-27T11:10:59.388Z,18.4
2018-09-27T11:12:00.577Z,18.2
2018-09-27T11:13:00.500Z,18.3
2018-09-27T11:14:00.467Z,18.4
2018-09-27T11:15:00.374Z,18.4
2018-09-27T11:16:00.288Z,18.4
2018-09-27T11:17:00.232Z,18.4
2018-09-27T11:18:00.140Z,18.5
2018-09-27T11:19:00.049Z,18.5
2018-09-27T11:19:59.967Z,18.5
2018-09-27T11:20:59.897Z,18.5
2018-09-27T11:22:00.549Z,18.5
2018-09-27T11:23:00.811Z,18.5
2018-09-27T11:24:00.716Z,18.4
2018-09-27T11:25:00.630Z,18.3
2018-09-27T11:26:00.569Z,18.4
2018-09-27T11:27:00.483Z,18.3
2018-09-27T11:28:00.399Z,18.3
2018-09-27T11:29:00.579Z,18.3
2018-09-27T11:30:00.831Z,18.4
2018-09-27T11:31:00.766Z,18.4
2018-09-27T11:32:01.154Z,18.4
2018-09-27T11:33:01.221Z,18.4
2018-09-27T11:34:01.490Z,18.4
2018-09-27T11:35:01.398Z,18.4
2018-09-27T11:36:01.307Z,18.3
2018-09-27T11:37:01.492Z,18.2
2018-09-27T11:38:01.416Z,18.3
2018-09-27T11:39:01.330Z,18.3
2018-09-27T11:40:01.254Z,18.3
2018-09-27T11:41:01.164Z,18.3
2018-09-27T11:42:01.555Z,18.3
2018-09-27T11:43:01.465Z,18.4
2018-09-27T11:44:01.647Z,18.4
2018-09-27T11:45:04.585Z,18.4
2018-09-27T11:46:04.505Z,18.4
2018-09-27T11:47:04.435Z,18.4
2018-09-27T11:48:04.347Z,18.3
2018-09-27T11:49:04.669Z,18.2
2018-09-27T11:50:05.521Z,18.3
2018-09-27T11:51:06.211Z,18.3
2018-09-27T11:52:06.581Z,18.3
2018-09-27T11:53:06.486Z,18.3
2018-09-27T11:54:06.401Z,18.3
2018-09-27T11:55:06.489Z,18.4
2018-09-27T11:56:06.952Z,18.5
2018-09-27T11:57:07.331Z,18.5
2018-09-27T11:58:07.302Z,18.5
2018-09-27T11:59:07.439Z,18.5
2018-09-27T12:00:07.750Z,18.5
2018-09-27T12:01:07.648Z,18.4
2018-09-27T12:02:08.602Z,18.4
2018-09-27T12:03:08.510Z,18.4
2018-09-27T12:12:09.828Z,18.8
2018-09-27T12:13:09.757Z,18.8
2018-09-27T12:14:09.677Z,18.7
2018-09-27T12:15:09.588Z,18.7
2018-09-27T12:16:09.505Z,18.8
2018-09-27T12:17:09.411Z,18.8
2018-09-27T12:18:09.351Z,18.7
2018-09-27T12:19:09.275Z,18.8
2018-09-27T12:20:09.383Z,18.8
2018-09-27T12:21:09.905Z,18.7
2018-09-27T12:22:10.260Z,18.7
2018-09-27T12:23:10.507Z,18.6
2018-09-27T12:24:10.833Z,18.6
2018-09-27T12:25:10.752Z,18.5
2018-09-27T12:26:10.669Z,18.4
2018-09-27T12:27:10.584Z,18.4
2018-09-27T12:28:10.490Z,18.5
2018-09-27T12:29:10.434Z,18.5
2018-09-27T12:30:10.335Z,18.5
2018-09-27T12:31:10.681Z,18.5
2018-09-27T12:32:11.253Z,18.5
2018-09-27T12:33:11.165Z,18.5
2018-09-27T12:34:11.475Z,18.5
2018-09-27T12:35:12.037Z,18.5
2018-09-27T12:36:11.952Z,18.5
2018-09-27T12:37:11.868Z,18.5
2018-09-27T12:38:11.785Z,18.7
2018-09-27T12:39:11.791Z,18.6
2018-09-27T12:40:11.705Z,18.6
2018-09-27T12:41:11.616Z,18.6
2018-09-27T12:42:13.369Z,18.5
2018-09-27T12:43:14.752Z,18.6
2018-09-27T12:44:14.677Z,18.6
2018-09-27T12:45:15.238Z,18.6
2018-09-27T12:46:15.873Z,18.7
2018-09-27T12:47:16.037Z,18.8
2018-09-27T12:48:16.151Z,18.7
2018-09-27T12:49:16.277Z,18.7
2018-09-27T12:50:16.186Z,18.7
2018-09-27T12:51:17.044Z,18.7
2018-09-27T12:52:20.805Z,18.7
2018-09-27T12:53:21.839Z,18.6
2018-09-27T12:54:21.771Z,18.7
2018-09-27T12:55:27.656Z,18.7
2018-09-27T12:56:27.611Z,18.7
2018-09-27T12:57:27.520Z,18.8
2018-09-27T12:58:27.533Z,18.8
2018-09-27T12:59:28.543Z,18.9
2018-09-27T13:00:29.449Z,19
2018-09-27T13:01:38.490Z,19
2018-09-27T13:02:40.491Z,18.9
2018-09-27T13:03:41.227Z,19
2018-09-27T13:04:41.170Z,19
2018-09-27T13:05:41.068Z,18.8
2018-09-27T13:06:41.204Z,18.8
2018-09-27T13:07:41.165Z,19
2018-09-27T13:08:41.378Z,18.9
2018-09-27T13:09:43.075Z,18.8
2018-09-27T13:10:43.973Z,18.9
2018-09-27T13:11:44.893Z,18.9
2018-09-27T13:12:46.668Z,18.9
2018-09-27T13:13:47.082Z,18.9
2018-09-27T13:14:47.558Z,19
2018-09-27T13:15:48.120Z,19.1
2018-09-27T13:16:48.094Z,19.1
2018-09-27T13:17:48.015Z,19.1
2018-09-27T13:18:48.601Z,19.3
2018-09-27T13:19:48.748Z,19.3
2018-09-27T13:20:49.263Z,19.2
2018-09-27T13:21:50.193Z,19
2018-09-27T13:22:50.527Z,19.1
2018-09-27T13:23:50.876Z,19.1
2018-09-27T13:32:55.271Z,19.7
2018-09-27T13:33:55.369Z,19.7
2018-09-27T13:34:58.084Z,19.6
2018-09-27T13:35:58.020Z,19.5
2018-09-27T13:36:58.141Z,19.4
2018-09-27T13:38:01.443Z,19.4
2018-09-27T13:39:01.614Z,19.4
2018-09-27T13:40:02.250Z,19.4
2018-09-27T13:41:02.623Z,19.5
2018-09-27T13:42:02.541Z,19.5
2018-09-27T13:43:07.584Z,19.5
2018-09-27T13:44:07.965Z,19.5
2018-09-27T13:45:08.245Z,19.6
2018-09-27T13:46:11.250Z,19.6
2018-09-27T13:47:11.161Z,19.6
2018-09-27T13:48:11.072Z,19.6
2018-09-27T13:49:11.372Z,19.5
2018-09-27T13:50:12.016Z,19.4
2018-09-27T13:51:11.964Z,19.3
2018-09-27T13:52:11.885Z,19.2
2018-09-27T13:53:12.251Z,19.2
2018-09-27T13:54:12.161Z,19.1
2018-09-27T13:55:12.339Z,19.2
2018-09-27T13:56:12.276Z,19.2
2018-09-27T13:57:12.293Z,19.1
2018-09-27T13:58:12.333Z,19.1
2018-09-27T13:59:12.255Z,19.1
2018-09-27T14:00:12.177Z,19.1
2018-09-27T14:01:12.110Z,19.2
2018-09-27T14:02:12.307Z,19.1
2018-09-27T14:03:13.130Z,19.1
2018-09-27T14:04:13.384Z,19.1
2018-09-27T14:05:13.287Z,19
2018-09-27T14:06:13.195Z,19.1
2018-09-27T14:07:13.118Z,19
2018-09-27T14:08:13.053Z,19.1
2018-09-27T14:09:12.958Z,19
2018-09-27T14:10:12.880Z,19
2018-09-27T14:11:12.781Z,19
2018-09-27T14:12:12.682Z,19
2018-09-27T14:13:13.067Z,19
2018-09-27T14:14:13.226Z,19.1
2018-09-27T14:15:13.145Z,19.1
2018-09-27T14:16:13.061Z,19
2018-09-27T14:17:12.979Z,19
2018-09-27T14:18:12.976Z,19
2018-09-27T14:19:12.914Z,18.9
2018-09-27T14:20:12.821Z,19
2018-09-27T14:21:12.742Z,19
2018-09-27T14:22:12.653Z,19.1
2018-09-27T14:23:13.268Z,19.1
2018-09-27T14:24:13.414Z,19
2018-09-27T14:33:21.598Z,19.5
2018-09-27T14:34:21.528Z,19.5
2018-09-27T14:35:21.652Z,19.5
2018-09-27T14:36:21.557Z,19.4
2018-09-27T14:37:21.464Z,19.4
2018-09-27T14:38:21.460Z,19.3
2018-09-27T14:39:21.373Z,19.3
2018-09-27T14:40:21.310Z,19.3
2018-09-27T14:41:21.216Z,19.3
2018-09-27T14:42:21.148Z,19.2
2018-09-27T14:43:21.537Z,19.2
2018-09-27T14:44:21.448Z,19.2
2018-09-27T14:45:21.379Z,19.3
2018-09-27T14:46:21.292Z,19.3
2018-09-27T14:47:21.200Z,19.2
2018-09-27T14:48:21.561Z,19.2
2018-09-27T14:49:21.482Z,19.1
2018-09-27T14:50:21.736Z,19.1
2018-09-27T14:51:21.988Z,19.2
2018-09-27T14:52:21.903Z,19.2
2018-09-27T14:53:22.297Z,19.2
2018-09-27T14:54:22.418Z,19.1
2018-09-27T14:55:22.372Z,19.2
2018-09-27T14:56:22.683Z,19.2
2018-09-27T14:57:23.065Z,19.1
2018-09-27T14:58:22.981Z,19.2
2018-09-27T14:59:22.922Z,19.1
2018-09-27T15:00:22.831Z,19.1
2018-09-27T15:01:22.777Z,19.1
2018-09-27T15:02:23.099Z,19.1
2018-09-27T15:03:23.852Z,19.1
2018-09-27T15:04:23.770Z,19.1
2018-09-27T15:05:23.731Z,19.1
2018-09-27T15:06:24.787Z,19.1
2018-09-27T15:07:24.796Z,19.1
2018-09-27T15:08:27.409Z,19.1
2018-09-27T15:09:27.792Z,19.1
2018-09-27T15:10:28.525Z,19.1
2018-09-27T15:11:28.929Z,19.1
2018-09-27T15:12:28.962Z,19.1
2018-09-27T15:13:29.606Z,19.1
2018-09-27T15:14:29.702Z,19.1
2018-09-27T15:15:29.848Z,19.1
2018-09-27T15:16:30.246Z,19
2018-09-27T15:17:30.607Z,19.1
2018-09-27T15:18:30.542Z,19.1
2018-09-27T15:19:30.449Z,19
2018-09-27T15:20:30.372Z,19
2018-09-27T15:21:30.280Z,19
2018-09-27T15:22:30.347Z,19
2018-09-27T15:23:31.073Z,18.9
2018-09-27T15:24:31.331Z,19
2018-09-27T15:25:31.508Z,19
2018-09-27T15:26:31.415Z,19
2018-09-27T15:27:31.347Z,19
2018-09-27T15:28:31.269Z,19
2018-09-27T15:29:31.187Z,18.9
2018-09-27T15:30:31.181Z,18.9
2018-09-27T15:31:31.211Z,18.9
2018-09-27T15:32:31.411Z,18.9
2018-09-27T15:33:31.818Z,18.9
2018-09-27T15:34:31.966Z,18.9
2018-09-27T15:43:31.366Z,19.1
2018-09-27T15:44:31.288Z,19.1
2018-09-27T15:45:31.365Z,19.1
2018-09-27T15:46:31.514Z,19
2018-09-27T15:47:31.478Z,19
2018-09-27T15:48:31.409Z,18.9
2018-09-27T15:49:31.341Z,19
2018-09-27T15:50:31.288Z,19
2018-09-27T15:51:31.645Z,18.9
2018-09-27T15:52:32.005Z,18.9
2018-09-27T15:53:32.425Z,18.9
2018-09-27T15:54:32.337Z,18.9
2018-09-27T15:55:32.284Z,18.8
2018-09-27T15:56:32.207Z,18.8
2018-09-27T15:57:32.149Z,18.7
2018-09-27T15:58:32.229Z,18.7
2018-09-27T15:59:32.339Z,18.7
2018-09-27T16:00:32.302Z,18.7
2018-09-27T16:01:32.227Z,18.7
2018-09-27T16:02:32.138Z,18.6
2018-09-27T16:03:32.739Z,18.6
2018-09-27T16:04:32.648Z,18.6
2018-09-27T16:05:32.814Z,18.6
2018-09-27T16:06:32.750Z,18.6
2018-09-27T16:07:32.650Z,18.6
2018-09-27T16:08:32.557Z,18.5
2018-09-27T16:09:32.733Z,18.5
2018-09-27T16:10:32.634Z,18.6
2018-09-27T16:11:32.567Z,18.5
2018-09-27T16:12:32.603Z,18.5
2018-09-27T16:13:32.980Z,18.5
2018-09-27T16:14:32.893Z,18.4
2018-09-27T16:15:32.835Z,18.5
2018-09-27T16:16:32.767Z,18.4
2018-09-27T16:17:32.802Z,18.3
2018-09-27T16:18:32.935Z,18.3
2018-09-27T16:19:32.842Z,18.3
2018-09-27T16:20:32.759Z,18.3
2018-09-27T16:21:32.685Z,18.3
2018-09-27T16:22:32.848Z,18.2
2018-09-27T16:23:33.357Z,18.2
2018-09-27T16:24:33.468Z,18.2
2018-09-27T16:25:33.620Z,18.2
2018-09-27T16:26:33.552Z,18.2
2018-09-27T16:27:33.518Z,18.2
2018-09-27T16:28:33.461Z,18.2
2018-09-27T16:29:33.513Z,18.1
2018-09-27T16:30:33.642Z,18.2
2018-09-27T16:31:33.556Z,18.1
2018-09-27T16:32:33.492Z,18
2018-09-27T16:33:34.165Z,18
2018-09-27T16:34:34.536Z,18
2018-09-27T16:35:34.831Z,18
2018-09-27T16:36:35.084Z,17.9
2018-09-27T16:37:35.024Z,17.9
2018-09-27T16:38:34.949Z,17.9
2018-09-27T16:39:35.084Z,17.8
2018-09-27T16:40:35.005Z,17.8
2018-09-27T16:41:35.103Z,17.7
2018-09-27T16:42:36.528Z,17.7